createdAt,value
2019-03-06T01:29:23.529Z,90.07
2019-03-06T01:31:52.378Z,90.29
2019-03-06T01:34:33.121Z,90.54
2019-03-06T01:37:10.150Z,90.28
2019-03-06T01:39:56.494Z,90.41
2019-03-06T01:42:33.860Z,90.38
2019-03-06T01:45:05.559Z,90.62
2019-03-06T01:47:34.532Z,90.68
2019-03-06T01:50:03.361Z,90.76
2019-03-06T01:52:32.175Z,90.34
2019-03-06T01:55:01.316Z,90.32
2019-03-06T01:57:30.144Z,90.63
2019-03-06T01:59:59.107Z,90.90
2019-03-06T02:02:28.067Z,90.77
2019-03-06T02:04:57.020Z,91.14
2019-03-06T02:07:26.116Z,90.96
2019-03-06T02:09:55.020Z,91.02
2019-03-06T02:12:23.848Z,91.12
2019-03-06T02:14:52.685Z,90.95
2019-03-06T02:17:21.537Z,90.96
2019-03-06T02:19:50.492Z,91.32
2019-03-06T02:22:19.392Z,91.33
2019-03-06T02:24:48.206Z,91.15
2019-03-06T02:27:17.107Z,91.30
2019-03-06T02:29:46.171Z,91.49
2019-03-06T02:32:15.255Z,91.24
2019-03-06T02:34:44.046Z,91.53
2019-03-06T02:37:12.835Z,91.59
2019-03-06T02:39:41.742Z,91.38
2019-03-06T02:42:10.538Z,91.45
2019-03-06T02:44:40.229Z,91.47
2019-03-06T02:47:09.251Z,91.35
2019-03-06T02:49:38.194Z,91.54
2019-03-06T02:52:07.654Z,91.43
2019-03-06T02:54:36.535Z,91.67
2019-03-06T02:57:05.387Z,91.77
2019-03-06T03:00:02.421Z,91.64
2019-03-06T03:02:41.877Z,91.80
2019-03-06T03:05:19.110Z,91.89
2019-03-06T03:07:48.292Z,91.85
2019-03-06T03:10:17.200Z,91.74
2019-03-06T03:12:45.994Z,91.81
2019-03-06T03:15:16.580Z,91.73
2019-03-06T03:17:45.540Z,91.79
2019-03-06T03:20:14.786Z,91.77
2019-03-06T03:22:43.634Z,91.67
2019-03-06T03:25:12.536Z,91.64
2019-03-06T03:27:41.376Z,91.68
2019-03-06T03:30:12.433Z,91.70
2019-03-06T03:32:41.240Z,91.35
2019-03-06T03:35:10.164Z,91.45
2019-03-06T03:37:39.245Z,91.49
2019-03-06T03:40:09.462Z,91.41
2019-03-06T03:42:38.573Z,91.43
2019-03-06T03:45:08.371Z,91.48
2019-03-06T03:47:37.288Z,91.53
2019-03-06T03:50:06.884Z,91.37
2019-03-06T03:52:35.731Z,91.35
2019-03-06T03:55:04.998Z,91.39
2019-03-06T03:57:33.860Z,91.36
2019-03-06T04:00:02.715Z,91.44
2019-03-06T04:02:32.198Z,91.31
2019-03-06T04:05:01.069Z,91.35
2019-03-06T04:07:29.990Z,91.39
2019-03-06T04:09:58.864Z,91.61
2019-03-06T04:12:27.825Z,91.56
2019-03-06T04:14:56.651Z,91.53
2019-03-06T04:17:25.493Z,91.82
2019-03-06T04:19:54.584Z,91.70
2019-03-06T04:22:23.369Z,91.73
2019-03-06T04:24:52.258Z,91.81
2019-03-06T04:27:21.074Z,92.08
2019-03-06T04:29:50.170Z,92.12
2019-03-06T04:32:19.169Z,91.94
2019-03-06T04:34:47.970Z,91.94
2019-03-06T04:37:16.835Z,91.71
2019-03-06T04:39:45.626Z,91.32
2019-03-06T04:42:15.046Z,91.67
2019-03-06T04:44:43.961Z,91.72
2019-03-06T04:47:12.872Z,91.82
2019-03-06T04:49:41.686Z,91.67
2019-03-06T04:52:10.641Z,91.84
2019-03-06T04:54:39.711Z,91.86
2019-03-06T04:57:08.484Z,91.96
2019-03-06T04:59:37.492Z,91.76
2019-03-06T05:02:06.389Z,91.92
2019-03-06T05:04:35.185Z,92.07
2019-03-06T05:07:04.106Z,91.72
2019-03-06T05:09:32.945Z,91.75
2019-03-06T05:12:01.720Z,91.93
2019-03-06T05:14:30.514Z,91.96
2019-03-06T05:17:17.122Z,91.82
2019-03-06T05:19:45.927Z,91.95
2019-03-06T05:22:14.692Z,92.01
2019-03-06T05:24:43.563Z,91.78
2019-03-06T05:27:12.908Z,91.97
2019-03-06T05:29:41.707Z,92.02
2019-03-06T05:32:36.258Z,91.91
2019-03-06T05:35:23.981Z,91.85
2019-03-06T05:38:21.545Z,91.76
2019-03-06T05:40:50.442Z,91.58
2019-03-06T05:43:19.335Z,91.56
2019-03-06T05:45:48.731Z,91.59
2019-03-06T05:48:17.527Z,91.60
2019-03-06T05:50:46.386Z,91.62
2019-03-06T05:53:15.327Z,91.38
2019-03-06T05:55:44.299Z,91.31
2019-03-06T05:58:13.151Z,91.32
2019-03-06T06:00:42.130Z,91.35
2019-03-06T06:03:10.908Z,91.26
2019-03-06T06:05:39.820Z,91.16
2019-03-06T06:08:08.616Z,90.88
2019-03-06T06:10:37.424Z,90.94
2019-03-06T06:13:06.260Z,90.71
2019-03-06T06:15:35.109Z,90.82
2019-03-06T06:18:04.282Z,90.67
2019-03-06T06:20:33.384Z,90.66
2019-03-06T06:23:13.308Z,90.72
2019-03-06T06:25:42.236Z,90.56
2019-03-06T06:28:11.199Z,90.50
2019-03-06T06:30:40.167Z,90.61
2019-03-06T06:33:09.648Z,90.17
2019-03-06T06:35:38.514Z,90.13
2019-03-06T06:38:07.310Z,90.04
2019-03-06T06:40:36.193Z,90.02
2019-03-06T06:43:05.378Z,90.02
2019-03-06T06:45:34.746Z,89.41
2019-03-06T06:48:11.433Z,89.17
2019-03-06T06:51:03.298Z,89.04
2019-03-06T06:53:47.783Z,88.60
2019-03-06T06:56:43.284Z,88.85
2019-03-06T06:59:17.084Z,88.83
2019-03-06T07:02:48.298Z,88.42
2019-03-06T07:05:45.330Z,89.03
2019-03-06T07:08:27.664Z,88.06
2019-03-06T07:11:28.336Z,88.33
2019-03-06T07:14:19.796Z,87.91
2019-03-06T07:17:23.028Z,87.91
2019-03-06T07:20:01.230Z,88.14
2019-03-06T07:22:35.731Z,88.11
2019-03-06T07:25:30.498Z,87.71
2019-03-06T07:28:07.274Z,87.48
2019-03-06T07:31:04.014Z,87.06
2019-03-06T07:33:42.228Z,87.41
2019-03-06T07:36:39.297Z,87.36
2019-03-06T07:39:23.441Z,87.21
2019-03-06T07:42:23.494Z,87.24
2019-03-06T07:45:57.613Z,87.23
2019-03-06T07:49:11.059Z,87.05
2019-03-06T07:51:48.897Z,87.04
2019-03-06T07:54:35.881Z,87.53
2019-03-06T07:57:39.045Z,87.50
2019-03-06T08:00:22.073Z,87.86
2019-03-06T08:03:03.593Z,88.09
2019-03-06T08:05:32.463Z,88.46
2019-03-06T08:08:01.432Z,88.40
2019-03-06T08:10:33.631Z,88.91
2019-03-06T08:13:08.074Z,88.88
2019-03-06T08:15:48.586Z,89.16
2019-03-06T08:18:23.113Z,89.13
2019-03-06T08:21:17.171Z,89.53
2019-03-06T08:23:53.287Z,90.01
2019-03-06T08:26:23.345Z,90.01
2019-03-06T08:28:52.161Z,90.55
2019-03-06T08:31:33.427Z,90.59
2019-03-06T08:34:02.481Z,90.58
2019-03-06T08:36:31.421Z,90.27
2019-03-06T08:39:00.469Z,90.71
2019-03-06T08:41:29.661Z,91.06
2019-03-06T08:43:58.593Z,91.13
2019-03-06T08:46:41.669Z,91.19
2019-03-06T08:49:32.912Z,90.96
2019-03-06T08:52:13.515Z,90.68
2019-03-06T08:55:01.507Z,90.67
2019-03-06T08:57:40.743Z,91.05
2019-03-06T09:00:34.537Z,90.93
2019-03-06T09:03:25.938Z,90.04
2019-03-06T09:06:13.907Z,90.05
2019-03-06T09:09:08.153Z,89.77
2019-03-06T09:12:07.927Z,89.78
2019-03-06T09:14:53.686Z,89.65
2019-03-06T09:17:53.813Z,89.63
2019-03-06T09:20:36.133Z,89.83
2019-03-06T09:26:15.134Z,89.77
2019-03-06T09:29:04.549Z,89.48
2019-03-06T09:31:44.468Z,89.61
2019-03-06T09:34:25.213Z,88.99
2019-03-06T09:37:09.412Z,88.51
2019-03-06T09:39:52.024Z,88.67
2019-03-06T09:42:35.153Z,88.56
2019-03-06T09:45:10.215Z,88.33
2019-03-06T09:47:50.487Z,88.03
2019-03-06T09:50:38.287Z,88.00
2019-03-06T09:53:32.041Z,88.05
2019-03-06T09:56:28.963Z,87.57
2019-03-06T09:59:12.083Z,87.39
2019-03-06T10:01:46.374Z,87.63
2019-03-06T10:04:40.409Z,87.30
2019-03-06T10:07:46.675Z,87.53
2019-03-06T10:10:33.577Z,87.21
2019-03-06T10:13:21.390Z,86.89
2019-03-06T10:16:11.285Z,86.76
2019-03-06T10:19:00.370Z,86.66
2019-03-06T10:22:02.400Z,86.70
2019-03-06T10:24:32.618Z,86.53
2019-03-06T10:27:01.843Z,86.08
2019-03-06T10:29:31.166Z,86.16
2019-03-06T10:32:00.266Z,86.05
2019-03-06T10:34:29.748Z,85.76
2019-03-06T10:36:59.460Z,85.75
2019-03-06T10:39:28.464Z,85.58
2019-03-06T10:41:57.385Z,85.33
2019-03-06T10:44:29.759Z,85.25
2019-03-06T10:46:57.360Z,85.30
2019-03-06T10:49:27.645Z,85.40
2019-03-06T10:51:56.829Z,84.61
2019-03-06T10:54:25.947Z,84.81
2019-03-06T10:56:57.143Z,84.67
2019-03-06T10:59:25.915Z,84.33
2019-03-06T11:01:56.940Z,84.02
2019-03-06T11:04:32.830Z,83.91
2019-03-06T11:07:02.338Z,83.57
2019-03-06T11:09:32.604Z,83.76
2019-03-06T11:12:01.503Z,82.96
2019-03-06T11:14:31.731Z,82.93
2019-03-06T11:17:00.684Z,83.01
2019-03-06T11:19:30.385Z,82.50
2019-03-06T11:21:59.439Z,82.21
2019-03-06T11:24:28.398Z,82.15
2019-03-06T11:26:57.844Z,82.25
2019-03-06T11:29:26.846Z,81.74
2019-03-06T11:31:55.787Z,81.73
2019-03-06T11:34:24.650Z,81.77
2019-03-06T11:36:53.900Z,81.20
2019-03-06T11:39:23.450Z,81.40
2019-03-06T11:41:52.397Z,81.40
2019-03-06T11:44:21.317Z,81.28
2019-03-06T11:46:50.811Z,80.62
2019-03-06T11:49:21.174Z,80.96
2019-03-06T11:51:50.571Z,80.58
2019-03-06T11:54:19.808Z,80.50
2019-03-06T11:56:49.241Z,80.03
2019-03-06T11:59:18.248Z,80.24
2019-03-06T12:01:48.474Z,80.12
2019-03-06T12:04:17.663Z,80.14
2019-03-06T12:06:46.602Z,79.42
2019-03-06T12:09:34.214Z,79.54
2019-03-06T12:12:04.127Z,79.17
2019-03-06T12:14:33.015Z,78.85
2019-03-06T12:17:01.975Z,79.07
2019-03-06T12:19:31.024Z,78.68
2019-03-06T12:22:00.216Z,78.79
2019-03-06T12:24:29.673Z,78.74
2019-03-06T12:26:58.605Z,77.93
2019-03-06T12:29:27.914Z,78.02
2019-03-06T12:31:56.729Z,77.75
2019-03-06T12:34:25.748Z,77.87
2019-03-06T12:36:54.906Z,78.00
2019-03-06T12:39:23.966Z,78.00
2019-03-06T12:41:52.946Z,77.70
2019-03-06T12:44:22.276Z,77.49
2019-03-06T12:46:54.195Z,77.43
2019-03-06T12:49:28.010Z,77.60
2019-03-06T12:51:56.910Z,77.29
2019-03-06T12:54:27.497Z,76.93
2019-03-06T12:56:56.602Z,77.35
2019-03-06T12:59:26.066Z,77.53
2019-03-06T13:01:54.936Z,76.73
2019-03-06T13:04:23.804Z,76.98
2019-03-06T13:06:53.008Z,76.99
2019-03-06T13:09:21.824Z,76.45
2019-03-06T13:11:50.925Z,76.37
2019-03-06T13:14:19.891Z,76.15
2019-03-06T13:16:49.285Z,75.67
2019-03-06T13:19:18.395Z,76.41
2019-03-06T13:21:47.438Z,76.47
2019-03-06T13:24:17.049Z,76.48
2019-03-06T13:26:45.879Z,76.04
2019-03-06T13:29:14.785Z,75.92
2019-03-06T13:31:43.652Z,75.61
2019-03-06T13:34:31.474Z,75.41
2019-03-06T13:37:00.344Z,75.57
2019-03-06T13:39:30.305Z,75.27
2019-03-06T13:41:59.487Z,75.20
2019-03-06T13:44:28.253Z,74.88
2019-03-06T13:46:57.142Z,75.10
2019-03-06T13:49:25.980Z,74.22
2019-03-06T13:51:54.944Z,74.57
2019-03-06T13:54:23.723Z,74.72
2019-03-06T13:56:52.753Z,75.08
2019-03-06T13:59:21.609Z,74.37
2019-03-06T14:01:50.473Z,75.12
2019-03-06T14:04:19.262Z,74.83
2019-03-06T14:06:48.152Z,74.65
2019-03-06T14:09:17.339Z,74.93
2019-03-06T14:11:46.639Z,75.07
2019-03-06T14:14:15.580Z,74.88
2019-03-06T14:16:44.463Z,75.29
2019-03-06T14:19:13.335Z,75.36
2019-03-06T14:21:42.173Z,75.13
2019-03-06T14:24:11.400Z,75.14
2019-03-06T14:26:40.612Z,74.60
2019-03-06T14:29:09.693Z,74.62
2019-03-06T14:31:38.885Z,74.57
2019-03-06T14:34:07.867Z,74.50
2019-03-06T14:36:36.796Z,74.32
2019-03-06T14:39:21.027Z,74.29
2019-03-06T14:41:50.065Z,73.68
2019-03-06T14:44:19.150Z,74.01
2019-03-06T14:46:48.476Z,73.56
2019-03-06T14:49:17.447Z,73.27
2019-03-06T14:51:46.248Z,73.54
2019-03-06T14:54:15.225Z,73.71
2019-03-06T14:56:45.075Z,73.04
2019-03-06T14:59:14.967Z,73.06
2019-03-06T15:01:44.991Z,73.01
2019-03-06T15:04:14.316Z,72.80
2019-03-06T15:06:44.171Z,72.24
2019-03-06T15:09:28.668Z,72.65
2019-03-06T15:11:57.577Z,72.95
2019-03-06T15:14:35.550Z,72.63
2019-03-06T15:16:58.379Z,71.99
2019-03-06T15:19:27.353Z,72.01
2019-03-06T15:21:56.649Z,71.63
2019-03-06T15:24:25.727Z,72.17
2019-03-06T15:26:54.717Z,71.89
2019-03-06T15:29:23.777Z,72.13
2019-03-06T15:31:53.046Z,71.59
2019-03-06T15:34:22.142Z,72.04
2019-03-06T15:36:51.197Z,72.05
2019-03-06T15:39:44.469Z,72.05
2019-03-06T15:42:13.529Z,72.15
2019-03-06T15:44:43.235Z,71.88
2019-03-06T15:47:12.314Z,72.45
2019-03-06T15:49:43.284Z,73.40
2019-03-06T15:52:13.009Z,74.11
2019-03-06T15:54:42.241Z,74.25
2019-03-06T15:57:12.487Z,73.48
2019-03-06T15:59:41.422Z,74.46
2019-03-06T16:02:11.436Z,73.80
2019-03-06T16:04:40.923Z,74.70
2019-03-06T16:07:11.881Z,74.80
2019-03-06T16:09:41.660Z,75.01
2019-03-06T16:12:12.332Z,75.54
2019-03-06T16:14:42.780Z,76.42
2019-03-06T16:17:13.079Z,76.68
2019-03-06T16:19:43.074Z,76.78
2019-03-06T16:22:19.252Z,75.69
2019-03-06T16:24:54.015Z,76.51
2019-03-06T16:27:22.996Z,75.32
2019-03-06T16:29:51.879Z,75.50
2019-03-06T16:32:20.785Z,75.15
2019-03-06T16:34:49.811Z,76.37
2019-03-06T16:37:18.746Z,77.55
2019-03-06T16:39:47.867Z,77.75
2019-03-06T16:42:16.796Z,78.61
2019-03-06T16:44:46.692Z,78.82
2019-03-06T16:47:15.582Z,79.20
2019-03-06T16:49:44.852Z,78.93
2019-03-06T16:52:14.173Z,79.00
2019-03-06T16:54:43.604Z,79.75
2019-03-06T16:57:12.651Z,79.56
2019-03-06T16:59:41.507Z,80.23
2019-03-06T17:02:10.897Z,80.11
2019-03-06T17:04:42.997Z,80.24
2019-03-06T17:07:12.080Z,79.44
2019-03-06T17:09:41.011Z,79.57
2019-03-06T17:12:09.940Z,79.91
2019-03-06T17:14:38.866Z,79.62
2019-03-06T17:17:08.266Z,79.79
2019-03-06T17:19:37.136Z,80.60
2019-03-06T17:22:06.643Z,80.54
2019-03-06T17:24:35.551Z,81.37
2019-03-06T17:27:04.606Z,82.83
2019-03-06T17:29:33.502Z,83.00
2019-03-06T17:32:02.408Z,83.29
2019-03-06T17:34:31.441Z,84.21
2019-03-06T17:37:01.372Z,85.17
2019-03-06T17:39:30.127Z,84.95
2019-03-06T17:41:58.968Z,85.31
2019-03-06T17:44:27.817Z,86.57
2019-03-06T17:46:56.975Z,86.27
2019-03-06T17:49:26.403Z,86.99
2019-03-06T17:51:55.190Z,87.53
2019-03-06T17:54:24.065Z,87.25
2019-03-06T17:56:53.209Z,86.47
2019-03-06T17:59:22.359Z,86.88
2019-03-06T18:01:51.854Z,87.19
2019-03-06T18:04:22.314Z,87.82
2019-03-06T18:06:51.232Z,88.02
2019-03-06T18:09:20.174Z,88.51
2019-03-06T18:11:49.396Z,88.38
2019-03-06T18:14:19.795Z,88.20
2019-03-06T18:16:48.980Z,87.77
2019-03-06T18:19:17.808Z,88.61
2019-03-06T18:21:46.791Z,88.65
2019-03-06T18:24:15.786Z,89.20
2019-03-06T18:26:44.864Z,89.28
2019-03-06T18:29:13.894Z,88.83
2019-03-06T18:31:42.697Z,89.21
2019-03-06T18:34:12.457Z,89.33
2019-03-06T18:36:41.474Z,89.68
2019-03-06T18:39:20.920Z,89.74
2019-03-06T18:41:50.001Z,90.03
2019-03-06T18:44:19.103Z,90.20
2019-03-06T18:46:49.105Z,89.77
2019-03-06T18:49:18.159Z,89.08
2019-03-06T18:51:47.112Z,89.25
2019-03-06T18:54:15.938Z,90.29
2019-03-06T18:56:44.715Z,89.86
2019-03-06T18:59:13.785Z,89.83
2019-03-06T19:01:43.053Z,89.67
2019-03-06T19:04:11.954Z,89.27
2019-03-06T19:06:41.448Z,89.74
2019-03-06T19:09:10.413Z,89.43
2019-03-06T19:11:39.425Z,89.70
2019-03-06T19:14:08.325Z,89.85
2019-03-06T19:16:37.273Z,89.92
2019-03-06T19:19:21.186Z,88.78
2019-03-06T19:21:50.114Z,89.05
2019-03-06T19:24:18.983Z,89.49
2019-03-06T19:26:50.028Z,89.83
2019-03-06T19:29:19.172Z,89.41
2019-03-06T19:37:13.009Z,89.76
2019-03-06T19:39:42.044Z,89.20
2019-03-06T19:42:11.487Z,89.68
2019-03-06T19:44:41.717Z,89.48
2019-03-06T19:47:10.810Z,88.71
2019-03-06T19:49:40.116Z,89.15
2019-03-06T19:52:09.091Z,89.29
2019-03-06T19:54:37.905Z,89.71
2019-03-06T19:57:07.005Z,89.34
2019-03-06T19:59:36.554Z,89.55
2019-03-06T20:02:05.597Z,89.49
2019-03-06T20:04:34.809Z,88.97
2019-03-06T20:07:03.774Z,89.51
2019-03-06T20:09:32.721Z,89.68
2019-03-06T20:12:01.694Z,89.71
2019-03-06T20:14:30.649Z,89.44
2019-03-06T20:16:59.612Z,89.57
2019-03-06T20:19:28.456Z,89.86
2019-03-06T20:21:57.612Z,90.40
2019-03-06T20:24:26.567Z,90.40
2019-03-06T20:26:55.767Z,90.43
2019-03-06T20:29:24.656Z,90.63
2019-03-06T20:31:54.380Z,90.49
2019-03-06T20:34:24.085Z,90.31
2019-03-06T20:36:52.872Z,89.76
2019-03-06T20:39:21.766Z,89.46
2019-03-06T20:41:50.585Z,89.41
2019-03-06T20:44:19.457Z,89.28
2019-03-06T20:46:48.384Z,88.69
2019-03-06T20:49:17.197Z,88.87
2019-03-06T20:51:46.362Z,88.83
2019-03-06T20:54:15.247Z,88.52
2019-03-06T20:56:44.274Z,87.97
2019-03-06T20:59:13.446Z,88.26
2019-03-06T21:01:42.374Z,87.82
2019-03-06T21:04:11.237Z,88.33
2019-03-06T21:06:40.434Z,87.86
2019-03-06T21:09:09.283Z,87.99
2019-03-06T21:11:38.360Z,87.41
2019-03-06T21:14:07.292Z,87.28
2019-03-06T21:16:36.132Z,87.10
2019-03-06T21:19:05.089Z,87.27
2019-03-06T21:21:33.972Z,87.22
2019-03-06T21:24:03.016Z,86.90
2019-03-06T21:26:31.834Z,87.43
2019-03-06T21:29:00.830Z,86.92
2019-03-06T21:31:29.757Z,87.19
2019-03-06T21:33:58.581Z,86.36
2019-03-06T21:36:27.504Z,86.64
2019-03-06T21:38:56.308Z,86.18
2019-03-06T21:41:25.167Z,86.60
2019-03-06T21:43:54.004Z,86.58
2019-03-06T21:46:22.839Z,86.40
2019-03-06T21:48:51.692Z,86.51
2019-03-06T21:51:20.739Z,86.23
2019-03-06T21:53:49.542Z,85.96
2019-03-06T21:56:18.331Z,84.83
2019-03-06T21:58:47.175Z,84.64
2019-03-06T22:01:16.154Z,85.52
2019-03-06T22:03:44.932Z,84.96
2019-03-06T22:06:14.059Z,85.28
2019-03-06T22:08:43.909Z,84.95
2019-03-06T22:11:12.745Z,84.79
2019-03-06T22:13:41.614Z,84.73
2019-03-06T22:16:10.882Z,84.64
2019-03-06T22:18:39.666Z,84.05
2019-03-06T22:21:08.527Z,84.51
2019-03-06T22:23:37.363Z,84.35
2019-03-06T22:26:06.310Z,84.21
2019-03-06T22:28:35.193Z,84.65
2019-03-06T22:31:04.305Z,84.04
2019-03-06T22:33:33.094Z,84.23
2019-03-06T22:36:02.288Z,83.81
2019-03-06T22:38:31.308Z,83.47
2019-03-06T22:41:00.138Z,83.58
2019-03-06T22:43:28.911Z,83.64
2019-03-06T22:45:58.081Z,83.85
2019-03-06T22:48:27.115Z,83.51
2019-03-06T22:50:56.157Z,83.97
2019-03-06T22:53:24.962Z,83.52
2019-03-06T22:55:53.912Z,83.11
2019-03-06T22:58:22.839Z,83.28
2019-03-06T23:00:58.715Z,83.16
2019-03-06T23:03:29.558Z,82.67
2019-03-06T23:05:58.412Z,83.05
2019-03-06T23:08:27.270Z,83.62
2019-03-06T23:10:56.119Z,83.41
2019-03-06T23:13:25.266Z,83.07
2019-03-06T23:15:54.155Z,83.59
2019-03-06T23:18:23.030Z,83.73
2019-03-06T23:20:51.801Z,83.47
2019-03-06T23:23:20.621Z,83.75
2019-03-06T23:25:49.432Z,83.50
2019-03-06T23:28:18.234Z,83.06
2019-03-06T23:30:47.132Z,83.16
2019-03-06T23:33:15.995Z,82.67
2019-03-06T23:35:45.243Z,82.56
2019-03-06T23:38:14.340Z,82.51
2019-03-06T23:40:43.534Z,82.44
2019-03-06T23:43:12.433Z,82.57
2019-03-06T23:45:41.419Z,82.57
2019-03-06T23:48:10.308Z,82.88
2019-03-06T23:50:39.222Z,83.06
2019-03-06T23:53:09.276Z,83.47
2019-03-06T23:55:38.461Z,83.40
2019-03-06T23:58:07.310Z,82.84
